Mason City Municipal Airport Mason City US
ICAO: KMCW
IATA: MCW
Category: Medium
Scheduled Services: No

Elevation: 1213 ft
TransAlt. 18000 ft.

Airport Communications:
ASOS:120.3
MINNEAPOLIS CNTR:127.3
FORT DODGE RDO:122.6
CTAF/UNICOM:123

KMCW Zoom In..

If you have problems with the map follow the link
https://www.worldairports.se/pages/airport.php?
ICAO=KMCW

Runways:

(A) RW 12 length 5502 ft width 150 ft
---- / hdg 120

(B) RW 18 length 6501 ft width 150 ft
---- / hdg 175

(C) RW 30 length 5502 ft width 150 ft
---- / hdg 300

(D) RW 36 length 6501 ft width 150 ft
ILS 109.50 / hdg 355

Location; KMCW
Day. 21 / Time. 18.53 Zulu
* Altimeter: 30.06
* Temperature: 12° c. 53.6°f.
* Wind from: 220° Speed 15 kn with Gusts up to 23 kn.
Dewpoint: -01° c.
Visibility: 10 Statute Miles.
Clouds: Clear (automated report).

KMCW 211853Z AUTO 22015G23KT 10SM CLR 12/M01 A3006 RMK AO2 PK WND 21028/1837 SLP184 T01221006


Wind From 220°
Speed 15 kn.

 
 
jpsmedia.com for Web Design worldairports.se 2018   terms of use